Pine Grove, Oregon
Current Conditions -  °F | °C
As of 1:53 AM on Saturday 22 Nov 2014 (Local Time) from KDLS Reporting Station
Light Rain Light Rain  
Wind Chill: 36°   Ceiling: 5500
Heat Index: 36°   Visibility: 5mi
Dew Point: 36°   Wind: 0mph
Humidity: 100%   Direction: NA
Pressure: 29.63"   Gusts: NA
Location:  45.0212°N, 121.451°W
Report Text: KDLS 220953Z AUTO 00000KT 5SM -RA BR BKN055 OVC080 02/02 A2963 RMK AO2 UPB35E44RAB44 SLP035 P0000 T00220022
Loading
Personal Weather Stations






























Interactive Weather Map New forecast layout! Learn more

10-Day Weather Forecast

Advertisements
Track Severe Weather on mobile